Time;durP1;ratioP1;P1;durP2;ratioP2;P2;SDS_P1;SDS_P2;PMS_P1;PMS_P2;Temp;Humidity;BMP_temperature;BMP_pressure;BME280_temperature;BME280_humidity;BME280_pressure;Samples;Min_cycle;Max_cycle;Signal;HPM_P1;HPM_P2
2022/01/10 00:01:49;;;;;;;21.73;4.30;;;3.70;99.90;;;;;;5033965;28;20056;-40
2022/01/10 00:04:15;;;;;;;12.20;4.40;;;3.70;99.90;;;;;;5033945;28;20393;-39
2022/01/10 00:06:41;;;;;;;11.82;3.72;;;3.70;99.90;;;;;;5032052;28;20018;-39
2022/01/10 00:09:07;;;;;;;15.95;4.32;;;3.70;99.90;;;;;;5033683;28;20025;-41
2022/01/10 00:11:32;;;;;;;9.88;3.42;;;3.70;99.90;;;;;;5032477;28;20029;-40
2022/01/10 00:13:58;;;;;;;12.20;4.53;;;3.80;99.90;;;;;;5015442;28;20034;-40
2022/01/10 00:16:24;;;;;;;5.93;3.50;;;3.70;99.90;;;;;;5023382;28;20029;-37
2022/01/10 00:18:49;;;;;;;18.00;4.22;;;3.70;99.90;;;;;;5031158;28;20102;-40
2022/01/10 00:21:15;;;;;;;15.75;4.75;;;3.60;99.90;;;;;;5021711;28;20512;-40
2022/01/10 00:23:41;;;;;;;9.60;4.00;;;3.60;99.90;;;;;;5029764;28;20029;-37
2022/01/10 00:26:08;;;;;;;12.27;4.32;;;3.60;99.90;;;;;;5026309;28;20021;-40
2022/01/10 00:28:33;;;;;;;14.23;4.45;;;3.50;99.90;;;;;;5021803;28;20082;-39
2022/01/10 00:30:59;;;;;;;14.25;4.90;;;3.50;99.90;;;;;;5018620;28;20124;-39
2022/01/10 00:33:25;;;;;;;16.48;5.15;;;3.50;99.90;;;;;;4997771;28;20046;-41
2022/01/10 00:35:50;;;;;;;11.13;4.10;;;3.50;99.90;;;;;;5021095;28;20022;-40
2022/01/10 00:38:16;;;;;;;15.45;3.88;;;3.50;99.90;;;;;;5013606;28;20096;-39
2022/01/10 00:40:42;;;;;;;11.75;3.95;;;3.40;99.90;;;;;;5026203;28;20025;-56
2022/01/10 00:43:16;;;;;;;8.32;3.47;;;3.40;99.90;;;;;;5033240;28;20025;-38
2022/01/10 00:45:42;;;;;;;12.48;5.10;;;3.40;99.90;;;;;;5033222;28;20108;-39
2022/01/10 00:48:08;;;;;;;17.17;4.63;;;3.40;99.90;;;;;;5033268;28;20061;-39
2022/01/10 00:50:33;;;;;;;14.40;5.28;;;3.40;99.90;;;;;;5028036;28;20490;-40
2022/01/10 00:53:00;;;;;;;10.35;4.28;;;3.40;99.90;;;;;;5032798;28;20033;-40
2022/01/10 00:55:26;;;;;;;9.38;4.68;;;3.40;99.90;;;;;;5026942;28;20029;-37
2022/01/10 00:57:52;;;;;;;10.70;4.05;;;3.40;99.90;;;;;;5032399;28;20033;-39
2022/01/10 01:00:18;;;;;;;15.35;4.60;;;3.30;99.90;;;;;;5030656;28;20052;-38
2022/01/10 01:02:44;;;;;;;18.05;5.30;;;3.30;99.90;;;;;;5032952;28;20557;-39
2022/01/10 01:05:14;;;;;;;16.52;5.65;;;3.30;99.90;;;;;;5031399;28;20112;-42
2022/01/10 01:07:40;;;;;;;14.65;5.75;;;3.30;99.90;;;;;;5038698;28;20484;-39
2022/01/10 01:12:47;;;;;;;12.32;5.13;;;3.30;99.90;;;;;;5038098;28;20040;-40
2022/01/10 01:15:34;;;;;;;16.67;5.20;;;3.30;99.90;;;;;;5038124;28;20072;-64
2022/01/10 01:25:51;;;;;;;9.82;5.28;;;3.30;99.90;;;;;;5042889;28;20116;-39
2022/01/10 01:28:18;;;;;;;18.65;5.47;;;3.30;99.90;;;;;;5048919;28;20047;-41
2022/01/10 01:30:43;;;;;;;17.90;6.10;;;3.30;99.90;;;;;;5032639;28;20089;-40
2022/01/10 01:33:13;;;;;;;14.00;5.00;;;3.30;99.90;;;;;;5042047;28;20036;-41
2022/01/10 01:35:38;;;;;;;11.23;5.70;;;3.30;99.90;;;;;;5037687;28;20036;-47
2022/01/10 01:38:05;;;;;;;17.40;5.00;;;3.30;99.90;;;;;;5040577;28;20485;-37
2022/01/10 01:40:33;;;;;;;8.25;4.90;;;3.30;99.90;;;;;;5055262;28;20032;-38
2022/01/10 01:42:58;;;;;;;9.23;4.00;;;3.30;99.90;;;;;;5044521;28;20397;-39
2022/01/10 01:45:39;;;;;;;11.48;4.30;;;3.30;99.90;;;;;;5039888;28;20279;-39
2022/01/10 01:48:05;;;;;;;14.30;5.05;;;3.30;99.90;;;;;;5041406;28;20472;-42
2022/01/10 01:50:31;;;;;;;12.70;4.28;;;3.30;99.90;;;;;;5038653;28;20022;-39
2022/01/10 01:52:56;;;;;;;12.82;4.75;;;3.20;99.90;;;;;;5036714;28;20034;-40
2022/01/10 01:55:22;;;;;;;9.70;4.70;;;3.20;99.90;;;;;;5035756;28;20056;-39
2022/01/10 01:57:48;;;;;;;10.50;4.60;;;3.20;99.90;;;;;;5036499;28;20495;-40
2022/01/10 02:00:14;;;;;;;12.45;5.65;;;3.20;99.90;;;;;;5046001;28;20108;-38
2022/01/10 02:02:40;;;;;;;10.45;5.00;;;3.20;99.90;;;;;;5039290;28;20033;-39
2022/01/10 02:05:06;;;;;;;19.98;5.43;;;3.20;99.90;;;;;;5035280;28;20037;-39
2022/01/10 02:07:31;;;;;;;11.07;5.05;;;3.20;99.90;;;;;;5054020;28;20013;-43
2022/01/10 02:10:16;;;;;;;16.98;5.75;;;3.10;99.90;;;;;;5041547;28;20030;-39
2022/01/10 02:12:42;;;;;;;14.70;5.00;;;3.10;99.90;;;;;;5053489;28;20468;-40
2022/01/10 02:15:08;;;;;;;11.43;4.95;;;3.10;99.90;;;;;;5046605;28;20032;-41
2022/01/10 02:17:36;;;;;;;12.07;4.68;;;3.10;99.90;;;;;;5052152;28;20032;-41
2022/01/10 02:20:07;;;;;;;14.07;5.22;;;3.00;99.90;;;;;;5039845;28;20029;-40
2022/01/10 02:22:51;;;;;;;12.30;4.95;;;3.00;99.90;;;;;;5035507;28;20025;-40
2022/01/10 02:25:17;;;;;;;15.55;5.75;;;3.00;99.90;;;;;;5048518;28;20059;-40
2022/01/10 02:27:45;;;;;;;11.45;5.07;;;3.00;99.90;;;;;;5042733;28;20410;-41
2022/01/10 02:30:11;;;;;;;11.45;5.00;;;2.90;99.90;;;;;;5051174;28;20021;-40
2022/01/10 02:32:37;;;;;;;13.18;4.40;;;2.90;99.90;;;;;;5054298;28;20503;-41
2022/01/10 02:35:03;;;;;;;14.70;4.82;;;2.80;99.90;;;;;;5044055;28;20053;-39
2022/01/10 02:37:34;;;;;;;12.77;5.32;;;2.80;99.90;;;;;;5054331;28;20021;-39
2022/01/10 02:40:03;;;;;;;17.20;6.65;;;2.90;99.90;;;;;;5040350;28;20477;-40
2022/01/10 02:42:29;;;;;;;14.05;5.95;;;2.90;99.90;;;;;;5035350;28;20408;-41
2022/01/10 02:44:54;;;;;;;10.75;4.93;;;2.90;99.90;;;;;;5040774;28;20025;-36
2022/01/10 02:47:20;;;;;;;17.70;5.50;;;2.90;99.90;;;;;;5045546;28;20049;-41
2022/01/10 02:49:45;;;;;;;15.73;4.88;;;2.80;99.90;;;;;;5033748;28;20481;-40
2022/01/10 02:52:11;;;;;;;24.15;5.18;;;2.80;99.90;;;;;;5045403;28;20036;-41
2022/01/10 02:54:37;;;;;;;8.73;4.72;;;2.80;99.90;;;;;;5046838;28;20025;-54
2022/01/10 02:57:03;;;;;;;24.67;5.20;;;2.70;99.90;;;;;;5044203;28;20025;-70
2022/01/10 02:59:28;;;;;;;12.85;6.15;;;2.80;99.90;;;;;;5036820;28;20037;-40
2022/01/10 03:01:54;;;;;;;14.27;5.78;;;2.80;99.90;;;;;;5036240;28;20029;-40
2022/01/10 03:04:20;;;;;;;16.30;5.50;;;2.80;99.90;;;;;;5035006;28;20022;-40
2022/01/10 03:06:48;;;;;;;12.13;5.10;;;2.80;99.90;;;;;;5045160;28;20477;-40
2022/01/10 03:09:14;;;;;;;19.42;6.00;;;2.80;99.90;;;;;;5046687;28;20488;-38
2022/01/10 03:11:41;;;;;;;15.90;5.80;;;2.80;99.90;;;;;;5032814;28;20045;-39
2022/01/10 03:14:08;;;;;;;11.30;5.13;;;2.80;99.90;;;;;;5035632;28;20021;-40
2022/01/10 03:16:34;;;;;;;13.82;5.72;;;2.90;99.90;;;;;;5034006;28;20032;-39
2022/01/10 03:18:59;;;;;;;11.25;5.10;;;2.80;99.90;;;;;;5035031;28;20044;-39
2022/01/10 03:21:25;;;;;;;16.10;5.47;;;2.90;99.90;;;;;;5039300;28;20037;-40
2022/01/10 03:23:51;;;;;;;12.27;6.45;;;2.90;99.90;;;;;;5041832;28;20117;-40
2022/01/10 03:26:20;;;;;;;13.90;6.00;;;2.90;99.90;;;;;;5036070;28;20029;-39
2022/01/10 03:28:46;;;;;;;16.45;6.28;;;3.00;99.90;;;;;;5034206;28;20469;-41
2022/01/10 03:31:12;;;;;;;21.42;5.80;;;3.00;99.90;;;;;;5034814;28;20021;-37
2022/01/10 03:33:38;;;;;;;17.90;6.85;;;3.10;99.90;;;;;;5035487;28;20033;-39
2022/01/10 03:36:04;;;;;;;9.98;5.82;;;3.20;99.90;;;;;;5034460;28;20025;-39
2022/01/10 03:38:29;;;;;;;15.10;6.75;;;3.20;99.90;;;;;;5035258;28;20555;-40
2022/01/10 03:40:55;;;;;;;18.60;7.10;;;3.30;99.90;;;;;;5050068;28;20109;-40
2022/01/10 03:43:21;;;;;;;21.02;7.95;;;3.40;99.90;;;;;;5034182;28;20107;-39
2022/01/10 03:45:46;;;;;;;22.95;8.27;;;3.40;99.90;;;;;;5039873;28;20032;-38
2022/01/10 03:48:12;;;;;;;17.70;6.43;;;3.50;99.90;;;;;;5043940;28;20018;-39
2022/01/10 03:50:38;;;;;;;14.52;7.53;;;3.50;99.90;;;;;;5034128;28;20033;-41
2022/01/10 03:53:03;;;;;;;14.90;7.45;;;3.60;99.90;;;;;;5045068;28;20039;-45
2022/01/10 03:55:29;;;;;;;18.83;7.32;;;3.70;99.90;;;;;;5034159;28;20030;-38
2022/01/10 03:57:55;;;;;;;17.33;7.30;;;3.70;99.90;;;;;;5038089;28;20029;-39
2022/01/10 04:00:21;;;;;;;16.92;7.07;;;3.70;99.90;;;;;;5046874;28;20028;-40
2022/01/10 04:02:56;;;;;;;14.95;6.75;;;3.80;99.90;;;;;;5036920;28;20057;-40
2022/01/10 04:05:22;;;;;;;17.58;7.25;;;3.70;99.90;;;;;;5047607;28;20028;-37
2022/01/10 04:08:07;;;;;;;16.58;7.43;;;3.70;99.90;;;;;;5036874;28;20072;-38
2022/01/10 04:10:33;;;;;;;14.75;6.35;;;3.70;99.90;;;;;;5043961;28;20041;-40
2022/01/10 04:12:59;;;;;;;17.27;7.75;;;3.70;99.90;;;;;;5035355;28;20026;-40
2022/01/10 04:15:24;;;;;;;17.40;7.18;;;3.70;99.90;;;;;;5043593;28;20092;-39
2022/01/10 04:17:56;;;;;;;21.50;8.60;;;3.70;99.90;;;;;;5036933;28;20029;-40
2022/01/10 04:20:23;;;;;;;23.27;8.10;;;3.70;99.90;;;;;;5045155;28;20035;-40
2022/01/10 04:22:48;;;;;;;20.88;7.15;;;3.60;99.90;;;;;;5032959;28;20033;-41
2022/01/10 04:25:14;;;;;;;13.02;6.82;;;3.70;99.90;;;;;;5034493;28;20481;-40
2022/01/10 04:27:40;;;;;;;18.42;8.05;;;3.80;99.90;;;;;;5033517;28;20036;-40
2022/01/10 04:30:06;;;;;;;19.23;7.28;;;3.80;99.90;;;;;;5038487;28;20021;-40
2022/01/10 04:32:32;;;;;;;14.45;7.28;;;3.90;99.90;;;;;;5043524;28;20500;-51
2022/01/10 04:34:59;;;;;;;19.17;7.13;;;3.90;99.90;;;;;;5031257;28;20022;-41
2022/01/10 04:37:25;;;;;;;25.52;8.05;;;3.90;99.90;;;;;;5020522;28;20377;-39
2022/01/10 04:39:51;;;;;;;17.90;7.45;;;3.90;99.90;;;;;;5029111;28;20034;-40
2022/01/10 04:42:16;;;;;;;12.95;7.18;;;3.90;99.90;;;;;;5013452;28;20164;-38
2022/01/10 04:44:42;;;;;;;11.95;7.07;;;3.90;99.90;;;;;;5017551;28;20493;-47
2022/01/10 04:47:10;;;;;;;22.77;8.15;;;3.90;99.90;;;;;;5019244;28;20096;-39
2022/01/10 04:50:01;;;;;;;19.90;7.50;;;3.90;99.90;;;;;;5019083;28;20025;-40
2022/01/10 04:52:21;;;;;;;18.88;7.15;;;4.00;99.90;;;;;;5013534;28;20033;-39
2022/01/10 04:54:47;;;;;;;21.98;7.75;;;4.00;99.90;;;;;;5028905;28;20393;-41
2022/01/10 04:57:12;;;;;;;12.75;7.28;;;4.00;99.90;;;;;;5026676;28;20025;-41
2022/01/10 04:59:38;;;;;;;18.80;7.85;;;4.00;99.90;;;;;;5028780;28;20026;-40
2022/01/10 05:02:04;;;;;;;14.45;7.78;;;4.10;99.90;;;;;;5035892;28;20029;-40
2022/01/10 05:04:29;;;;;;;22.38;7.82;;;4.10;99.90;;;;;;5043081;28;20032;-48
2022/01/10 05:06:55;;;;;;;14.55;7.38;;;4.20;99.90;;;;;;5045778;28;20025;-58
2022/01/10 05:09:20;;;;;;;19.20;9.30;;;4.20;99.90;;;;;;5034130;28;20489;-39
2022/01/10 05:11:46;;;;;;;14.32;7.90;;;4.30;99.90;;;;;;5038714;28;20065;-40
2022/01/10 05:14:12;;;;;;;19.83;7.80;;;4.30;99.90;;;;;;5045563;28;20021;-38
2022/01/10 05:16:40;;;;;;;26.00;7.65;;;4.20;99.90;;;;;;5035474;28;20123;-40
2022/01/10 05:19:07;;;;;;;12.40;7.10;;;4.30;99.90;;;;;;5038788;28;20041;-40
2022/01/10 05:21:32;;;;;;;15.55;7.88;;;4.30;99.90;;;;;;5043894;28;20061;-40
2022/01/10 05:23:58;;;;;;;14.73;8.27;;;4.30;99.90;;;;;;5041582;28;20527;-38
2022/01/10 05:26:24;;;;;;;28.05;8.18;;;4.30;99.90;;;;;;5048266;28;20381;-39
2022/01/10 05:28:49;;;;;;;21.15;7.78;;;4.30;99.90;;;;;;5046740;28;20037;-39
2022/01/10 05:31:15;;;;;;;18.13;8.38;;;4.30;99.90;;;;;;5033729;28;20024;-40
2022/01/10 05:33:41;;;;;;;22.17;6.88;;;4.30;99.90;;;;;;5032813;28;20053;-40
2022/01/10 05:36:06;;;;;;;16.58;7.43;;;4.30;99.90;;;;;;5032514;28;20037;-39
2022/01/10 05:38:32;;;;;;;25.55;8.35;;;4.30;99.90;;;;;;5033417;28;20537;-39
2022/01/10 05:40:57;;;;;;;20.50;8.15;;;4.30;99.90;;;;;;5032998;28;20029;-38
2022/01/10 05:43:23;;;;;;;20.10;8.68;;;4.40;99.90;;;;;;5033331;28;20025;-41
2022/01/10 05:45:49;;;;;;;18.42;7.93;;;4.40;99.90;;;;;;5032691;28;20036;-39
2022/01/10 05:48:21;;;;;;;25.63;9.00;;;4.40;99.90;;;;;;5046862;28;20024;-40
2022/01/10 05:50:47;;;;;;;21.95;7.80;;;4.40;99.90;;;;;;5040030;28;20021;-39
2022/01/10 05:53:13;;;;;;;20.45;7.68;;;4.40;99.90;;;;;;5038022;28;20025;-40
2022/01/10 05:55:39;;;;;;;26.00;8.88;;;4.40;99.90;;;;;;5038993;28;20504;-42
2022/01/10 05:58:07;;;;;;;17.27;7.95;;;4.40;99.90;;;;;;5032338;28;20033;-42
2022/01/10 06:00:34;;;;;;;28.98;8.70;;;4.40;99.90;;;;;;5038936;28;20494;-38
2022/01/10 06:03:01;;;;;;;16.55;7.68;;;4.40;99.90;;;;;;5019590;28;20065;-76
2022/01/10 06:05:30;;;;;;;20.40;8.43;;;4.40;99.90;;;;;;5013209;28;20033;-40
2022/01/10 06:07:57;;;;;;;14.68;7.68;;;4.40;99.90;;;;;;5014100;28;20022;-56
2022/01/10 06:10:23;;;;;;;14.77;7.78;;;4.50;99.90;;;;;;5015323;28;20034;-40
2022/01/10 06:12:48;;;;;;;19.60;8.05;;;4.50;99.90;;;;;;5013397;28;20396;-40
2022/01/10 06:15:14;;;;;;;28.48;8.93;;;4.50;99.90;;;;;;5016623;28;20100;-43
2022/01/10 06:17:39;;;;;;;23.77;8.18;;;4.50;99.90;;;;;;5013093;28;20041;-41
2022/01/10 06:20:06;;;;;;;18.70;7.93;;;4.50;99.90;;;;;;5021336;28;20033;-40
2022/01/10 06:22:31;;;;;;;19.58;7.60;;;4.50;99.90;;;;;;5032105;28;20366;-40
2022/01/10 06:24:57;;;;;;;22.05;7.70;;;4.50;99.90;;;;;;5024118;28;20022;-40
2022/01/10 06:27:23;;;;;;;15.65;6.95;;;4.50;99.90;;;;;;5019304;28;20024;-40
2022/01/10 06:29:49;;;;;;;20.52;8.35;;;4.60;99.90;;;;;;5028924;28;20113;-40
2022/01/10 06:32:14;;;;;;;16.90;7.60;;;4.60;99.90;;;;;;5032765;28;20450;-40
2022/01/10 06:34:40;;;;;;;26.27;8.13;;;4.60;99.90;;;;;;5026025;28;20029;-41
2022/01/10 06:37:05;;;;;;;13.52;7.28;;;4.50;99.90;;;;;;5029223;28;20022;-39
2022/01/10 06:39:31;;;;;;;19.17;6.80;;;4.60;99.90;;;;;;5016673;28;20018;-39
2022/01/10 06:41:57;;;;;;;21.38;7.72;;;4.50;99.90;;;;;;5016214;28;20030;-40
2022/01/10 06:44:23;;;;;;;19.73;8.18;;;4.50;99.90;;;;;;5020678;28;20033;-40
2022/01/10 06:46:49;;;;;;;19.63;8.52;;;4.60;99.90;;;;;;5019759;28;20025;-40
2022/01/10 06:49:14;;;;;;;21.73;8.48;;;4.60;99.90;;;;;;5029588;28;20382;-40
2022/01/10 06:51:40;;;;;;;23.67;8.25;;;4.70;99.90;;;;;;5017050;28;20026;-38
2022/01/10 06:54:06;;;;;;;19.95;7.97;;;4.70;99.90;;;;;;5032375;28;20021;-39
2022/01/10 06:56:31;;;;;;;22.15;7.93;;;4.60;99.90;;;;;;5030166;28;20029;-62
2022/01/10 06:58:57;;;;;;;18.67;7.20;;;4.60;99.90;;;;;;5022530;28;20026;-41
2022/01/10 07:01:23;;;;;;;21.13;7.75;;;4.60;99.90;;;;;;5039466;28;20036;-43
2022/01/10 07:03:52;;;;;;;14.68;8.15;;;4.60;99.90;;;;;;5054431;28;20390;-41
2022/01/10 07:06:18;;;;;;;30.23;8.93;;;4.60;99.90;;;;;;5055264;28;20411;-40
2022/01/10 07:08:43;;;;;;;22.02;8.30;;;4.60;99.90;;;;;;5048954;28;20108;-39
2022/01/10 07:11:09;;;;;;;13.48;7.72;;;4.60;99.90;;;;;;5036523;28;20045;-40
2022/01/10 07:13:35;;;;;;;15.32;7.25;;;4.60;99.90;;;;;;5036157;28;20048;-43
2022/01/10 07:16:00;;;;;;;18.08;7.43;;;4.60;99.90;;;;;;5034827;28;20120;-38
2022/01/10 07:18:26;;;;;;;21.58;7.68;;;4.60;99.90;;;;;;5034508;28;20124;-41
2022/01/10 07:20:52;;;;;;;15.50;7.30;;;4.60;99.90;;;;;;5035953;28;20039;-40
2022/01/10 07:23:18;;;;;;;19.13;7.88;;;4.50;99.90;;;;;;5038539;28;20481;-41
2022/01/10 07:25:43;;;;;;;18.75;7.50;;;4.50;99.90;;;;;;5035847;28;20083;-40
2022/01/10 07:28:09;;;;;;;15.38;7.53;;;4.50;99.90;;;;;;5035613;28;20026;-41
2022/01/10 07:30:35;;;;;;;15.75;7.10;;;4.50;99.90;;;;;;5033723;28;20068;-40
2022/01/10 07:33:00;;;;;;;17.45;7.55;;;4.50;99.90;;;;;;5037848;28;20025;-50
2022/01/10 07:35:26;;;;;;;20.10;7.95;;;4.50;99.90;;;;;;5038642;28;20013;-40
2022/01/10 07:37:52;;;;;;;20.10;7.10;;;4.60;99.90;;;;;;5043731;28;20029;-37
2022/01/10 07:40:17;;;;;;;15.60;6.43;;;4.50;99.90;;;;;;5033999;28;20025;-40
2022/01/10 07:42:43;;;;;;;18.63;7.75;;;4.50;99.90;;;;;;5044294;28;20433;-39
2022/01/10 07:45:09;;;;;;;14.73;7.18;;;4.50;99.90;;;;;;5035197;28;20022;-41
2022/01/10 07:47:35;;;;;;;19.25;7.85;;;4.50;99.90;;;;;;5040075;28;20473;-39
2022/01/10 07:50:03;;;;;;;21.98;7.68;;;4.40;99.90;;;;;;5033303;28;20553;-66
2022/01/10 07:52:29;;;;;;;16.58;8.60;;;4.40;99.90;;;;;;5033442;28;20033;-40
2022/01/10 07:54:56;;;;;;;15.02;7.55;;;4.40;99.90;;;;;;5036559;28;20474;-41
2022/01/10 07:57:22;;;;;;;22.55;8.00;;;4.40;99.90;;;;;;5033714;28;20029;-42
2022/01/10 07:59:47;;;;;;;14.40;7.60;;;4.40;99.90;;;;;;5033559;28;20115;-40
2022/01/10 08:02:14;;;;;;;17.50;9.23;;;4.30;99.90;;;;;;5023003;28;20032;-40
2022/01/10 08:04:39;;;;;;;14.15;7.75;;;4.30;99.90;;;;;;5031026;28;20421;-42
2022/01/10 08:07:05;;;;;;;16.80;7.05;;;4.30;99.90;;;;;;5033618;28;20056;-39
2022/01/10 08:09:30;;;;;;;21.80;8.43;;;4.30;99.90;;;;;;5035721;28;20112;-42
2022/01/10 08:11:59;;;;;;;22.13;7.93;;;4.30;99.90;;;;;;5038448;28;20029;-38
2022/01/10 08:14:26;;;;;;;18.13;7.55;;;4.30;99.90;;;;;;5014226;28;20444;-40
2022/01/10 08:16:52;;;;;;;20.13;8.85;;;4.30;99.90;;;;;;5025402;28;20108;-43
2022/01/10 08:19:18;;;;;;;23.27;10.20;;;4.30;99.90;;;;;;5032362;28;20137;-40
2022/01/10 08:21:43;;;;;;;34.45;12.02;;;4.30;99.90;;;;;;5031234;28;20029;-40
2022/01/10 08:24:09;;;;;;;32.15;12.52;;;4.30;99.90;;;;;;5030319;28;20508;-40
2022/01/10 08:26:35;;;;;;;26.05;9.15;;;4.40;99.90;;;;;;5031837;28;20036;-39
2022/01/10 08:29:00;;;;;;;16.63;7.30;;;4.40;99.90;;;;;;5033306;28;20557;-38
2022/01/10 08:31:26;;;;;;;23.85;8.18;;;4.50;99.90;;;;;;5031873;28;20022;-39
2022/01/10 08:33:52;;;;;;;16.98;8.05;;;4.60;99.90;;;;;;5032875;28;20100;-37
2022/01/10 08:36:18;;;;;;;20.20;7.90;;;4.60;99.90;;;;;;5014236;28;20076;-37
2022/01/10 08:38:43;;;;;;;20.23;9.35;;;4.60;99.90;;;;;;5030483;28;20072;-39
2022/01/10 08:41:09;;;;;;;16.98;8.20;;;4.60;99.90;;;;;;5027955;28;20079;-41
2022/01/10 08:43:35;;;;;;;36.25;11.20;;;4.60;99.90;;;;;;5015338;28;20474;-39
2022/01/10 08:46:01;;;;;;;15.50;8.82;;;4.70;99.90;;;;;;5026339;28;20716;-37
2022/01/10 08:48:26;;;;;;;16.45;7.65;;;4.80;99.90;;;;;;5037563;28;20031;-38
2022/01/10 08:50:53;;;;;;;18.95;8.27;;;4.80;99.90;;;;;;5031487;28;20491;-46
2022/01/10 08:53:19;;;;;;;24.00;8.70;;;4.80;99.90;;;;;;5023816;28;20033;-40
2022/01/10 08:55:44;;;;;;;19.58;8.40;;;4.80;99.90;;;;;;5025138;28;20029;-35
2022/01/10 08:58:10;;;;;;;19.88;8.65;;;4.80;99.90;;;;;;5027482;28;20075;-41
2022/01/10 09:00:36;;;;;;;25.33;8.27;;;4.80;99.90;;;;;;5032840;28;20021;-45
2022/01/10 09:03:03;;;;;;;22.75;8.15;;;4.80;99.90;;;;;;5018502;28;20030;-39
2022/01/10 09:05:30;;;;;;;20.70;9.90;;;4.80;99.90;;;;;;5026332;28;20095;-38
2022/01/10 09:07:58;;;;;;;22.38;8.30;;;4.80;99.90;;;;;;5024202;28;21839;-38
2022/01/10 09:10:26;;;;;;;21.90;8.50;;;4.80;99.90;;;;;;5024086;28;20067;-36
2022/01/10 09:12:52;;;;;;;15.80;6.63;;;4.80;99.90;;;;;;5023139;28;20417;-40
2022/01/10 09:15:17;;;;;;;21.20;8.70;;;4.90;99.90;;;;;;5026902;28;20759;-39
2022/01/10 09:17:43;;;;;;;24.52;10.18;;;5.00;99.90;;;;;;5027561;28;20083;-39
2022/01/10 09:20:10;;;;;;;16.17;8.50;;;5.10;99.90;;;;;;5028047;28;20043;-40
2022/01/10 09:22:35;;;;;;;15.50;8.02;;;5.20;99.90;;;;;;5027985;28;20064;-40
2022/01/10 09:25:02;;;;;;;18.65;8.75;;;5.30;99.90;;;;;;5030661;28;20453;-39
2022/01/10 09:27:27;;;;;;;23.15;9.15;;;5.40;99.90;;;;;;5023587;28;20477;-40
2022/01/10 09:29:53;;;;;;;21.13;9.55;;;5.40;99.90;;;;;;5027589;28;20033;-39
2022/01/10 09:32:19;;;;;;;22.48;7.95;;;5.40;99.90;;;;;;5024590;28;20045;-41
2022/01/10 09:34:45;;;;;;;17.23;9.18;;;5.50;99.90;;;;;;5031057;28;20026;-39
2022/01/10 09:39:55;;;;;;;27.65;10.18;;;5.50;99.90;;;;;;5025461;28;20065;-39
2022/01/10 09:42:22;;;;;;;22.75;9.05;;;5.50;99.90;;;;;;5029513;28;20493;-43
2022/01/10 09:44:48;;;;;;;30.80;9.33;;;5.60;99.90;;;;;;5031145;28;20053;-39
2022/01/10 09:47:13;;;;;;;23.67;8.88;;;5.60;99.90;;;;;;5027552;28;20453;-41
2022/01/10 09:49:39;;;;;;;20.60;9.07;;;5.60;99.90;;;;;;5030271;28;20551;-41
2022/01/10 09:52:05;;;;;;;20.33;9.82;;;5.70;99.90;;;;;;5029454;28;20473;-40
2022/01/10 09:54:31;;;;;;;25.45;9.55;;;5.70;99.90;;;;;;5027791;28;20025;-39
2022/01/10 09:56:56;;;;;;;23.83;9.40;;;5.70;99.90;;;;;;5027127;28;20513;-35
2022/01/10 09:59:22;;;;;;;22.13;9.38;;;5.90;99.90;;;;;;5031588;28;20531;-40
2022/01/10 10:01:51;;;;;;;25.95;9.98;;;6.00;99.90;;;;;;5027192;28;20345;-42
2022/01/10 10:04:18;;;;;;;19.65;9.30;;;6.20;99.90;;;;;;5034228;28;20041;-37
2022/01/10 10:06:46;;;;;;;27.05;9.32;;;6.30;99.90;;;;;;5034818;28;20025;-37
2022/01/10 10:09:11;;;;;;;24.30;9.23;;;6.30;99.90;;;;;;5032490;28;20033;-41
2022/01/10 10:11:42;;;;;;;21.80;9.75;;;6.20;99.90;;;;;;5031321;28;20041;-39
2022/01/10 10:14:10;;;;;;;23.73;8.95;;;6.30;99.90;;;;;;5036577;28;20045;-40
2022/01/10 10:16:37;;;;;;;20.73;8.65;;;6.20;99.90;;;;;;5035853;28;20708;-40
2022/01/10 10:19:04;;;;;;;15.52;8.20;;;6.20;99.90;;;;;;5028082;28;20030;-41
2022/01/10 10:21:31;;;;;;;22.98;8.93;;;6.20;99.90;;;;;;5030143;28;20412;-41
2022/01/10 10:23:56;;;;;;;18.63;8.75;;;6.20;99.90;;;;;;5031923;28;20037;-40
2022/01/10 10:26:25;;;;;;;23.27;9.32;;;6.20;99.90;;;;;;5033445;28;20470;-41
2022/01/10 10:28:54;;;;;;;26.45;10.25;;;6.30;99.90;;;;;;5034613;28;20057;-41
2022/01/10 10:31:46;;;;;;;21.75;8.73;;;6.30;99.90;;;;;;5033405;28;20120;-45
2022/01/10 10:34:19;;;;;;;26.95;9.43;;;6.40;99.90;;;;;;5035228;28;20029;-39
2022/01/10 10:36:46;;;;;;;25.02;9.48;;;6.40;99.90;;;;;;5036010;28;20033;-42
2022/01/10 10:39:11;;;;;;;22.25;9.85;;;6.50;99.90;;;;;;5035545;28;20116;-42
2022/01/10 10:41:38;;;;;;;30.63;9.63;;;6.50;99.90;;;;;;5035261;28;20104;-39
2022/01/10 10:44:05;;;;;;;18.90;7.13;;;6.50;99.90;;;;;;5034843;28;20033;-44
2022/01/10 10:46:31;;;;;;;19.88;9.05;;;6.50;99.90;;;;;;5034400;28;20091;-42
2022/01/10 10:49:04;;;;;;;21.48;9.45;;;6.60;99.90;;;;;;5034195;28;20021;-40
2022/01/10 10:51:33;;;;;;;17.40;8.15;;;6.60;99.90;;;;;;5035289;28;20075;-36
2022/01/10 10:54:08;;;;;;;24.13;10.35;;;6.70;99.90;;;;;;5030296;28;20567;-57
2022/01/10 10:56:36;;;;;;;27.05;9.15;;;6.70;99.90;;;;;;5032767;28;20080;-59
2022/01/10 10:59:03;;;;;;;;;;;6.70;99.90;;;;;;5035718;28;20503;-49
2022/01/10 11:01:29;;;;;;;18.05;9.55;;;6.70;99.90;;;;;;5034652;28;19913;-41
2022/01/10 11:03:55;;;;;;;20.95;8.85;;;6.80;99.90;;;;;;5033002;28;20041;-40
2022/01/10 11:06:21;;;;;;;19.67;8.07;;;6.80;99.90;;;;;;5035094;28;20034;-41
2022/01/10 11:08:47;;;;;;;23.40;9.25;;;6.80;99.90;;;;;;5034084;28;20030;-39
2022/01/10 11:11:22;;;;;;;21.80;9.43;;;6.80;99.90;;;;;;5034069;28;20485;-40
2022/01/10 11:13:50;;;;;;;25.50;9.35;;;6.80;99.90;;;;;;5033656;28;20026;-40
2022/01/10 11:16:16;;;;;;;20.73;9.55;;;6.90;99.90;;;;;;5023597;28;20055;-41
2022/01/10 11:18:42;;;;;;;26.40;9.88;;;6.90;99.90;;;;;;5034266;28;20440;-39
2022/01/10 11:21:08;;;;;;;29.15;8.32;;;6.90;99.90;;;;;;5041297;28;20021;-44
2022/01/10 11:23:44;;;;;;;19.27;8.68;;;6.90;99.90;;;;;;5033570;28;20029;-40
2022/01/10 11:26:13;;;;;;;27.17;9.15;;;6.90;99.90;;;;;;5034539;28;20021;-40
2022/01/10 11:28:48;;;;;;;21.33;8.95;;;6.90;99.90;;;;;;5032143;28;20374;-40
2022/01/10 11:31:28;;;;;;;20.65;8.73;;;6.90;99.90;;;;;;5034236;28;20043;-41
2022/01/10 11:33:58;;;;;;;23.60;9.30;;;6.90;99.90;;;;;;5033393;28;20527;-38
2022/01/10 11:36:26;;;;;;;21.25;7.55;;;6.90;99.90;;;;;;5033779;28;20040;-39
2022/01/10 11:38:57;;;;;;;29.88;9.38;;;6.90;99.90;;;;;;5034394;28;20509;-40
2022/01/10 11:41:25;;;;;;;17.35;9.68;;;6.90;99.90;;;;;;5032945;28;20032;-40
2022/01/10 11:43:54;;;;;;;25.42;10.18;;;6.90;99.90;;;;;;5033860;28;20033;-40
2022/01/10 11:46:34;;;;;;;32.20;10.02;;;6.90;99.90;;;;;;5034344;28;20071;-41
2022/01/10 11:49:09;;;;;;;23.63;8.90;;;6.80;99.90;;;;;;5034267;28;20068;-39
2022/01/10 11:51:41;;;;;;;20.77;9.15;;;6.90;99.90;;;;;;5034357;28;20507;-42
2022/01/10 11:54:11;;;;;;;32.95;10.90;;;6.90;99.90;;;;;;5033197;28;20030;-40
2022/01/10 11:56:43;;;;;;;19.75;8.93;;;7.00;99.90;;;;;;5031981;28;20037;-42
2022/01/10 11:59:09;;;;;;;13.98;8.73;;;7.00;99.90;;;;;;5030016;28;20688;-40
2022/01/10 12:01:38;;;;;;;23.08;10.68;;;6.90;99.90;;;;;;5033844;28;20397;-40
2022/01/10 12:04:04;;;;;;;17.15;9.00;;;6.90;99.90;;;;;;5034244;28;20507;-41
2022/01/10 12:06:30;;;;;;;22.85;9.85;;;6.90;99.90;;;;;;5032523;28;20025;-40
2022/01/10 12:08:57;;;;;;;16.25;9.70;;;7.00;99.90;;;;;;5033890;28;20564;-40
2022/01/10 12:11:24;;;;;;;23.40;9.93;;;6.90;99.90;;;;;;5033772;28;20065;-41
2022/01/10 12:13:54;;;;;;;35.90;10.17;;;7.00;99.90;;;;;;5032931;28;20034;-40
2022/01/10 12:16:21;;;;;;;29.48;10.13;;;7.00;99.90;;;;;;5033516;28;20045;-40
2022/01/10 12:18:47;;;;;;;22.02;9.18;;;7.00;99.90;;;;;;5033088;28;20025;-40
2022/01/10 12:21:13;;;;;;;25.40;8.98;;;7.10;99.90;;;;;;5044709;28;20024;-45
2022/01/10 12:23:43;;;;;;;18.60;8.43;;;7.10;99.90;;;;;;5053692;28;20116;-41
2022/01/10 12:26:10;;;;;;;18.75;8.98;;;7.20;99.90;;;;;;5053839;28;20065;-38
2022/01/10 12:28:36;;;;;;;21.80;9.55;;;7.20;99.90;;;;;;5033759;28;20030;-40
2022/01/10 12:31:03;;;;;;;24.40;9.10;;;7.20;99.90;;;;;;5033530;28;20036;-41
2022/01/10 12:33:29;;;;;;;25.40;9.32;;;7.20;99.90;;;;;;5031643;28;20505;-42
2022/01/10 12:35:55;;;;;;;22.05;10.07;;;7.30;99.90;;;;;;5033549;28;20029;-43
2022/01/10 12:38:22;;;;;;;25.92;9.25;;;7.30;99.90;;;;;;5032490;28;20033;-39
2022/01/10 12:40:51;;;;;;;28.23;10.15;;;7.30;99.90;;;;;;5033305;28;20501;-41
2022/01/10 12:43:17;;;;;;;27.73;9.95;;;7.40;99.90;;;;;;5032622;28;20381;-51
2022/01/10 12:45:44;;;;;;;24.75;10.60;;;7.50;99.90;;;;;;5032717;28;20025;-39
2022/01/10 12:48:11;;;;;;;23.27;9.18;;;7.50;99.90;;;;;;5033034;28;20029;-39
2022/01/10 12:50:44;;;;;;;22.13;8.23;;;7.40;99.90;;;;;;5033439;28;20425;-39
2022/01/10 12:53:10;;;;;;;24.55;8.35;;;7.50;99.90;;;;;;5031710;28;20474;-41
2022/01/10 12:55:36;;;;;;;29.35;9.63;;;7.60;99.90;;;;;;5031314;28;20130;-43
2022/01/10 12:58:06;;;;;;;21.98;9.02;;;7.60;99.90;;;;;;5029839;28;20057;-40
2022/01/10 13:00:32;;;;;;;26.75;8.50;;;7.60;99.90;;;;;;5032583;28;20029;-41